Time;durP1;ratioP1;P1;durP2;ratioP2;P2;SDS_P1;SDS_P2;PMS_P1;PMS_P2;Temp;Humidity;BMP_temperature;BMP_pressure;BME280_temperature;BME280_humidity;BME280_pressure;Samples;Min_cycle;Max_cycle;Signal;HPM_P1;HPM_P2
2022/11/23 00:01:35;;;;;;;5.63;4.20;;;;;;;1.95;76.24;98804.16;5035707;28;20371;-59
2022/11/23 00:04:06;;;;;;;6.30;4.35;;;;;;;2.02;75.75;98807.25;5035490;28;20123;-59
2022/11/23 00:06:32;;;;;;;7.38;4.72;;;;;;;1.92;76.50;98806.13;5037813;28;20040;-58
2022/11/23 00:08:58;;;;;;;7.72;4.80;;;;;;;1.95;76.48;98813.88;5055161;28;20040;-58
2022/11/23 00:11:25;;;;;;;6.38;4.60;;;;;;;2.06;76.09;98814.03;5054334;28;20172;-57
2022/11/23 00:13:51;;;;;;;7.70;4.60;;;;;;;2.17;75.81;98809.88;5053020;28;20048;-58
2022/11/23 00:16:19;;;;;;;6.03;3.90;;;;;;;2.07;75.79;98815.75;5054783;28;20088;-61
2022/11/23 00:18:45;;;;;;;5.95;4.60;;;;;;;2.08;75.40;98828.00;5034995;28;20038;-60
2022/11/23 00:21:17;;;;;;;7.45;4.60;;;;;;;1.96;76.31;98819.03;5034920;28;20072;-57
2022/11/23 00:23:43;;;;;;;7.82;4.65;;;;;;;2.02;76.29;98815.19;5049520;28;20033;-58
2022/11/23 00:26:09;;;;;;;6.35;4.38;;;;;;;2.00;76.52;98809.16;5048554;28;20030;-59
2022/11/23 00:28:39;;;;;;;6.93;4.65;;;;;;;2.07;76.63;98815.75;5035265;28;20091;-56
2022/11/23 00:31:16;;;;;;;6.78;4.55;;;;;;;2.17;76.28;98802.81;5035505;28;20021;-58
2022/11/23 00:33:46;;;;;;;5.97;4.50;;;;;;;2.13;76.97;98807.44;5035797;28;20082;-56
2022/11/23 00:36:14;;;;;;;8.05;4.97;;;;;;;2.06;75.90;98784.16;5037320;28;20037;-59
2022/11/23 00:38:40;;;;;;;7.22;4.63;;;;;;;2.23;75.69;98810.34;5054671;28;20098;-57
2022/11/23 00:41:08;;;;;;;8.63;3.95;;;;;;;2.32;75.86;98801.00;5055008;28;20029;-57
2022/11/23 00:43:34;;;;;;;8.38;4.75;;;;;;;2.22;75.72;98806.00;5044812;28;20060;-59
2022/11/23 00:46:21;;;;;;;6.45;4.70;;;;;;;2.21;75.53;98800.84;5035055;28;20140;-57
2022/11/23 00:48:50;;;;;;;5.65;4.35;;;;;;;1.97;75.95;98780.31;5054662;28;20427;-58
2022/11/23 00:51:21;;;;;;;8.15;4.85;;;;;;;2.14;76.92;98811.75;5054380;28;20041;-58
2022/11/23 00:53:49;;;;;;;7.20;4.35;;;;;;;2.35;75.27;98802.63;5054157;28;20138;-58
2022/11/23 00:56:15;;;;;;;6.22;4.40;;;;;;;2.27;74.85;98811.00;5051883;28;20044;-61
2022/11/23 00:58:40;;;;;;;8.18;4.47;;;;;;;2.18;76.10;98814.25;5034567;28;20412;-59
2022/11/23 01:01:11;;;;;;;5.35;4.10;;;;;;;2.22;75.20;98813.94;5035683;28;20029;-57
2022/11/23 01:03:40;;;;;;;5.38;3.47;;;;;;;2.30;74.80;98797.63;5034657;28;20021;-60
2022/11/23 01:06:08;;;;;;;6.47;4.03;;;;;;;2.23;75.03;98812.16;5035679;28;20112;-60
2022/11/23 01:08:34;;;;;;;5.97;4.15;;;;;;;1.90;75.27;98769.28;5054380;28;20064;-58
2022/11/23 01:11:02;;;;;;;7.45;4.28;;;;;;;2.22;75.22;98813.94;5053849;28;20064;-58
2022/11/23 01:13:28;;;;;;;6.05;3.92;;;;;;;2.18;75.58;98814.25;5054461;28;20032;-57
2022/11/23 01:15:53;;;;;;;4.72;3.45;;;;;;;2.23;74.95;98806.88;5054413;28;20084;-57
2022/11/23 01:18:19;;;;;;;5.00;3.45;;;;;;;2.13;75.06;98809.25;5034383;28;20026;-59
2022/11/23 01:20:44;;;;;;;5.20;4.00;;;;;;;2.05;75.35;98800.94;5034022;28;20029;-56
2022/11/23 01:23:10;;;;;;;4.40;3.08;;;;;;;2.08;74.93;98796.31;5052375;28;20035;-60
2022/11/23 01:25:35;;;;;;;5.35;3.88;;;;;;;2.02;75.51;98801.97;5054400;28;20029;-56
2022/11/23 01:28:01;;;;;;;5.32;3.55;;;;;;;1.98;75.89;98795.19;5037138;28;20099;-59
2022/11/23 01:30:26;;;;;;;4.47;3.28;;;;;;;2.05;75.61;98785.94;5033899;28;20072;-59
2022/11/23 01:32:52;;;;;;;4.40;2.97;;;;;;;2.07;75.13;98784.06;5034097;28;20356;-55
2022/11/23 01:35:17;;;;;;;6.07;2.70;;;;;;;2.08;75.06;98796.31;5034152;28;20021;-59
2022/11/23 01:37:43;;;;;;;5.55;2.90;;;;;;;2.00;75.89;98788.03;5047324;28;20060;-55
2022/11/23 01:40:09;;;;;;;2.90;2.33;;;;;;;2.08;75.46;98793.66;5053913;28;20035;-57
2022/11/23 01:42:53;;;;;;;5.25;3.25;;;;;;;2.19;75.63;98797.44;5053285;28;20059;-58
2022/11/23 01:45:40;;;;;;;5.18;2.63;;;;;;;2.25;75.52;98799.69;5053490;28;20060;-56
2022/11/23 01:48:15;;;;;;;4.20;2.30;;;;;;;2.19;75.16;98800.09;5036684;28;20479;-57
2022/11/23 01:50:42;;;;;;;3.87;2.90;;;;;;;2.15;74.62;98799.44;5033190;28;20037;-57
2022/11/23 01:53:07;;;;;;;3.90;2.70;;;;;;;2.24;74.77;98800.66;5033982;28;20123;-59
2022/11/23 01:55:34;;;;;;;3.70;2.80;;;;;;;2.18;75.05;98803.69;5032563;28;20437;-60
2022/11/23 01:58:00;;;;;;;4.53;2.67;;;;;;;2.05;75.44;98796.50;5048381;28;20181;-60
2022/11/23 02:00:26;;;;;;;4.05;2.35;;;;;;;2.16;75.54;98814.31;5034278;28;20120;-60
2022/11/23 02:02:57;;;;;;;3.03;1.88;;;;;;;2.18;75.56;98812.44;5033116;28;20116;-58
2022/11/23 02:05:29;;;;;;;4.85;2.42;;;;;;;2.26;74.23;98804.88;5033384;28;20052;-60
2022/11/23 02:07:58;;;;;;;4.55;2.85;;;;;;;2.15;75.02;98810.00;5033486;28;20037;-57
2022/11/23 02:10:23;;;;;;;6.80;3.03;;;;;;;2.23;74.46;98817.44;5049606;28;20055;-60
2022/11/23 02:12:49;;;;;;;3.85;2.85;;;;;;;2.07;74.63;98815.75;5053257;28;20029;-60
2022/11/23 02:15:35;;;;;;;4.05;2.90;;;;;;;2.04;75.18;98805.38;5052371;28;20043;-59
2022/11/23 02:18:04;;;;;;;4.85;2.80;;;;;;;2.07;74.80;98807.81;5053011;28;20124;-60
2022/11/23 02:20:30;;;;;;;4.10;2.60;;;;;;;2.05;75.23;98817.63;5034622;28;20033;-59
2022/11/23 02:23:17;;;;;;;4.78;3.03;;;;;;;2.18;75.41;98812.44;5046143;28;20052;-59
2022/11/23 02:25:43;;;;;;;3.85;2.38;;;;;;;2.25;74.48;98810.25;5053185;28;20033;-58
2022/11/23 02:28:16;;;;;;;4.30;2.95;;;;;;;2.11;75.44;98811.13;5053082;28;20035;-58
2022/11/23 02:30:44;;;;;;;5.10;3.22;;;;;;;2.07;75.29;98807.81;5051806;28;20041;-59
2022/11/23 02:33:10;;;;;;;7.63;2.95;;;;;;;2.05;75.29;98809.72;5052973;28;20032;-58
2022/11/23 02:35:50;;;;;;;5.03;2.78;;;;;;;2.26;75.00;98811.97;5051860;28;20033;-60
2022/11/23 02:38:17;;;;;;;3.45;2.58;;;;;;;2.27;74.81;98813.66;5052782;28;20104;-58
2022/11/23 02:40:42;;;;;;;6.50;2.78;;;;;;;2.21;74.21;98811.41;5043305;28;20083;-57
2022/11/23 02:43:07;;;;;;;3.13;2.47;;;;;;;2.13;75.02;98803.97;5042282;28;20049;-57
2022/11/23 02:45:58;;;;;;;5.35;2.85;;;;;;;2.21;75.48;98806.13;5032623;28;20041;-58
2022/11/23 02:48:25;;;;;;;5.93;2.60;;;;;;;2.10;75.52;98804.16;5031853;28;20333;-60
2022/11/23 02:50:51;;;;;;;6.22;2.65;;;;;;;2.09;76.22;98810.38;5033162;28;20090;-56
2022/11/23 02:53:17;;;;;;;4.35;2.42;;;;;;;2.20;75.28;98805.25;5042921;28;20410;-58
2022/11/23 02:55:43;;;;;;;3.42;2.50;;;;;;;2.18;75.56;98799.22;5052400;28;20053;-56
2022/11/23 02:58:09;;;;;;;4.35;2.35;;;;;;;2.17;75.49;98804.59;5052190;28;20036;-56
2022/11/23 03:00:35;;;;;;;4.10;2.40;;;;;;;2.15;75.82;98797.63;5034330;28;20029;-56
2022/11/23 03:03:01;;;;;;;3.30;2.78;;;;;;;2.08;75.41;98796.31;5031518;28;20466;-58
2022/11/23 03:05:27;;;;;;;5.93;2.55;;;;;;;2.09;75.83;98808.56;5033209;28;20040;-59
2022/11/23 03:07:52;;;;;;;4.47;2.75;;;;;;;2.10;75.73;98807.63;5039259;28;20447;-59
2022/11/23 03:10:18;;;;;;;4.40;2.70;;;;;;;2.15;75.50;98794.97;5036800;28;20436;-55
2022/11/23 03:12:44;;;;;;;3.95;2.70;;;;;;;2.10;75.85;98804.16;5032556;28;20044;-57
2022/11/23 03:15:10;;;;;;;4.05;2.63;;;;;;;2.09;75.88;98808.56;5032127;28;20030;-58
2022/11/23 03:17:35;;;;;;;4.68;2.97;;;;;;;2.26;75.88;98811.97;5031915;28;20041;-56
2022/11/23 03:20:01;;;;;;;6.60;2.72;;;;;;;2.16;75.97;98803.75;5044911;28;20032;-56
2022/11/23 03:22:28;;;;;;;4.93;3.38;;;;;;;2.18;76.56;98806.31;5052101;28;20029;-56
2022/11/23 03:24:55;;;;;;;6.18;3.25;;;;;;;2.26;76.46;98822.53;5051923;28;20040;-56
2022/11/23 03:27:20;;;;;;;5.38;2.75;;;;;;;2.41;75.27;98828.63;5044319;28;20032;-56
2022/11/23 03:29:46;;;;;;;4.75;2.70;;;;;;;2.22;75.69;98797.25;5042775;28;20028;-60
2022/11/23 03:32:11;;;;;;;3.55;2.78;;;;;;;2.43;75.03;98814.41;5052124;28;20082;-60
2022/11/23 03:34:37;;;;;;;4.25;2.80;;;;;;;2.47;74.75;98822.13;5049960;28;20830;-54
2022/11/23 03:37:02;;;;;;;3.10;2.35;;;;;;;2.50;73.80;98814.00;5051804;28;20106;-53
2022/11/23 03:39:27;;;;;;;6.40;2.70;;;;;;;2.36;74.43;98805.13;5043663;28;20061;-53
2022/11/23 03:41:53;;;;;;;3.75;2.53;;;;;;;2.33;73.99;98804.50;5031849;28;20038;-58
2022/11/23 03:44:18;;;;;;;3.70;2.75;;;;;;;2.15;75.79;98813.47;5031917;28;20432;-57
2022/11/23 03:46:44;;;;;;;6.57;3.58;;;;;;;1.97;76.13;98788.22;5031733;28;20436;-56
2022/11/23 03:49:09;;;;;;;3.95;3.00;;;;;;;2.25;75.58;98815.53;5040230;28;20416;-57
2022/11/23 03:51:35;;;;;;;4.15;3.10;;;;;;;2.38;74.71;98812.97;5051425;28;20417;-57
2022/11/23 03:54:00;;;;;;;3.83;3.40;;;;;;;2.48;73.57;98810.59;5051741;28;20371;-55
2022/11/23 03:56:26;;;;;;;6.18;3.13;;;;;;;2.41;74.42;98807.50;5051641;28;20069;-59
2022/11/23 03:58:51;;;;;;;5.47;3.28;;;;;;;2.28;74.77;98807.44;5045291;28;20029;-60
2022/11/23 04:01:16;;;;;;;4.38;3.40;;;;;;;2.26;74.98;98809.31;5032021;28;20030;-59
2022/11/23 04:03:42;;;;;;;4.63;3.38;;;;;;;2.25;74.85;98810.25;5031688;28;20025;-61
2022/11/23 04:06:07;;;;;;;5.88;3.80;;;;;;;2.20;75.72;98815.00;5031477;28;20041;-59
2022/11/23 04:08:33;;;;;;;5.78;3.85;;;;;;;2.26;75.29;98819.88;5034450;28;20067;-61
2022/11/23 04:10:58;;;;;;;6.10;3.45;;;;;;;2.27;74.75;98811.84;5051498;28;20033;-58
2022/11/23 04:13:24;;;;;;;6.35;3.88;;;;;;;2.50;73.57;98811.34;5051333;28;20048;-58
2022/11/23 04:15:50;;;;;;;4.95;3.00;;;;;;;2.24;74.38;98812.03;5055076;28;20440;-61
2022/11/23 04:18:15;;;;;;;7.00;3.55;;;;;;;2.15;75.15;98824.03;5054991;28;20064;-60
2022/11/23 04:20:41;;;;;;;4.93;3.08;;;;;;;2.19;75.49;98821.22;5040401;28;20426;-58
2022/11/23 04:23:06;;;;;;;7.68;3.22;;;;;;;1.69;75.04;98737.16;5055332;28;20040;-56
2022/11/23 04:25:32;;;;;;;4.65;3.05;;;;;;;2.20;75.59;98815.00;5054860;28;20033;-56
2022/11/23 04:27:57;;;;;;;6.35;3.78;;;;;;;2.18;75.72;98827.44;5054755;28;20337;-53
2022/11/23 04:30:23;;;;;;;4.47;3.30;;;;;;;2.17;75.68;98831.00;5053546;28;20351;-53
2022/11/23 04:32:48;;;;;;;4.93;3.40;;;;;;;2.23;75.69;98830.66;5055111;28;20021;-57
2022/11/23 04:35:14;;;;;;;5.43;3.63;;;;;;;2.04;76.12;98805.38;5053829;28;20467;-58
2022/11/23 04:37:39;;;;;;;4.72;2.38;;;;;;;2.33;75.76;98830.91;5055001;28;20055;-58
2022/11/23 04:40:05;;;;;;;4.40;3.17;;;;;;;2.46;74.33;98825.72;5039411;28;20464;-58
2022/11/23 04:42:31;;;;;;;5.97;3.10;;;;;;;2.23;75.29;98828.00;5034130;28;20099;-56
2022/11/23 04:44:56;;;;;;;4.38;2.78;;;;;;;2.19;75.64;98827.34;5033983;28;20404;-57
2022/11/23 04:47:23;;;;;;;4.47;3.05;;;;;;;2.17;75.86;98825.72;5034587;28;20072;-60
2022/11/23 04:49:49;;;;;;;4.70;3.13;;;;;;;2.25;75.23;98828.75;5046485;28;20377;-59
2022/11/23 04:52:15;;;;;;;4.70;2.88;;;;;;;2.31;75.11;98823.06;5054324;28;20048;-59
2022/11/23 04:54:40;;;;;;;6.15;2.85;;;;;;;2.23;75.31;98828.00;5053698;28;20057;-55
2022/11/23 04:57:06;;;;;;;3.97;2.80;;;;;;;2.32;75.02;98829.22;5021554;28;20077;-61
2022/11/23 04:59:31;;;;;;;5.93;2.78;;;;;;;2.26;74.67;98833.91;5043829;28;20041;-59
2022/11/23 05:01:57;;;;;;;3.65;3.00;;;;;;;2.13;75.05;98836.47;5054473;28;20360;-58
2022/11/23 05:04:22;;;;;;;4.80;2.88;;;;;;;2.06;76.44;98840.44;5054469;28;20091;-60
2022/11/23 05:06:47;;;;;;;5.07;3.00;;;;;;;2.14;76.13;98843.44;5054631;28;20025;-59
2022/11/23 05:09:13;;;;;;;3.92;3.03;;;;;;;2.24;75.18;98843.75;5046520;28;20133;-59
2022/11/23 05:11:38;;;;;;;5.20;3.65;;;;;;;2.12;75.77;98836.59;5053792;28;20403;-57
2022/11/23 05:14:04;;;;;;;4.85;3.10;;;;;;;2.11;75.99;98835.72;5054257;28;20106;-55
2022/11/23 05:16:29;;;;;;;5.55;3.47;;;;;;;2.19;75.61;98829.97;5053992;28;20468;-56
2022/11/23 05:18:55;;;;;;;4.30;2.95;;;;;;;2.38;74.66;98844.69;5048528;28;20063;-60
2022/11/23 05:21:20;;;;;;;5.43;3.80;;;;;;;2.24;75.21;98849.03;5034186;28;20109;-55
2022/11/23 05:23:46;;;;;;;5.68;3.78;;;;;;;2.20;74.76;98844.88;5034027;28;20033;-60
2022/11/23 05:26:11;;;;;;;5.55;3.83;;;;;;;1.94;75.35;98820.94;5034192;28;20037;-57
2022/11/23 05:28:37;;;;;;;6.28;3.53;;;;;;;2.03;76.43;98848.56;5035307;28;20025;-53
2022/11/23 05:31:03;;;;;;;6.68;3.78;;;;;;;2.04;76.90;98839.69;5043252;28;20088;-59
2022/11/23 05:33:29;;;;;;;3.70;3.28;;;;;;;2.12;76.34;98845.34;5033763;28;20029;-59
2022/11/23 05:35:54;;;;;;;2.75;2.50;;;;;;;2.17;76.16;98852.13;5034252;28;20048;-61
2022/11/23 05:38:20;;;;;;;4.82;3.15;;;;;;;1.98;76.18;98817.16;5034817;28;20034;-60
2022/11/23 05:40:45;;;;;;;2.92;2.05;;;;;;;2.38;75.29;98847.31;5052023;28;20021;-60
2022/11/23 05:43:11;;;;;;;2.80;2.40;;;;;;;2.32;73.99;98819.50;5052388;28;20043;-59
2022/11/23 05:45:37;;;;;;;2.65;2.45;;;;;;;2.37;74.42;98848.28;5044042;28;20151;-54
2022/11/23 05:48:03;;;;;;;5.05;2.63;;;;;;;2.18;75.19;98859.13;5037982;28;20059;-64
2022/11/23 05:50:30;;;;;;;5.28;2.78;;;;;;;2.15;75.75;98850.44;5021408;28;20029;-66
2022/11/23 05:52:56;;;;;;;3.33;2.10;;;;;;;2.35;74.65;98868.66;5044840;28;20182;-62
2022/11/23 05:55:22;;;;;;;2.60;2.40;;;;;;;2.23;75.02;98871.09;5040280;28;20029;-58
2022/11/23 05:57:48;;;;;;;3.72;2.50;;;;;;;2.31;74.82;98860.06;5053001;28;20035;-61
2022/11/23 06:00:14;;;;;;;2.38;2.15;;;;;;;2.33;73.74;98846.78;5047278;28;20048;-58
2022/11/23 06:02:40;;;;;;;3.58;2.22;;;;;;;2.22;73.60;98821.84;5047653;28;20178;-60
2022/11/23 06:05:06;;;;;;;3.70;2.50;;;;;;;1.97;74.21;98823.38;5052812;28;20605;-55
2022/11/23 06:07:32;;;;;;;6.95;2.40;;;;;;;2.23;74.03;98857.88;5041483;28;20108;-54
2022/11/23 06:09:58;;;;;;;3.00;2.70;;;;;;;2.13;74.60;98862.06;5033259;28;20029;-54
2022/11/23 06:12:23;;;;;;;3.70;2.53;;;;;;;2.13;74.46;98857.59;5032108;28;20132;-61
2022/11/23 06:14:49;;;;;;;3.20;2.20;;;;;;;2.22;74.43;98850.91;5047942;28;20084;-57
2022/11/23 06:17:14;;;;;;;3.78;2.58;;;;;;;2.12;74.75;98850.63;5036626;28;20405;-62
2022/11/23 06:19:40;;;;;;;2.50;2.30;;;;;;;2.24;74.10;98853.47;5051867;28;20029;-62
2022/11/23 06:22:05;;;;;;;2.65;1.92;;;;;;;2.29;74.16;98865.44;5034273;28;20475;-62
2022/11/23 06:24:30;;;;;;;1.40;1.30;;;;;;;2.29;73.76;98830.25;5051490;28;20043;-62
2022/11/23 06:26:56;;;;;;;2.90;2.00;;;;;;;2.41;73.36;98861.19;5050608;28;20043;-62
2022/11/23 06:29:21;;;;;;;3.08;1.20;;;;;;;2.43;73.35;98863.72;5015258;28;20035;-53
2022/11/23 06:31:47;;;;;;;3.97;2.40;;;;;;;2.32;73.45;98855.63;5039752;28;20029;-62
2022/11/23 06:34:13;;;;;;;2.65;1.70;;;;;;;2.23;73.42;98862.34;5051949;28;20060;-61
2022/11/23 06:36:38;;;;;;;2.90;1.75;;;;;;;2.33;73.46;98854.69;5051421;28;20067;-63
2022/11/23 06:39:04;;;;;;;3.03;2.10;;;;;;;2.13;74.30;98859.41;5033221;28;20039;-61
2022/11/23 06:41:29;;;;;;;3.25;2.45;;;;;;;2.12;74.82;98861.19;5033237;28;20104;-62
2022/11/23 06:43:55;;;;;;;3.72;2.70;;;;;;;2.18;74.93;98865.25;5032428;28;20037;-62
2022/11/23 06:46:21;;;;;;;5.10;3.28;;;;;;;2.31;74.19;98854.78;5038248;28;20045;-62
2022/11/23 06:48:47;;;;;;;4.90;2.72;;;;;;;2.37;73.78;98857.03;5040634;28;20683;-63
2022/11/23 06:51:13;;;;;;;6.15;3.83;;;;;;;2.18;73.87;98833.56;5052250;28;20033;-62
2022/11/23 06:53:39;;;;;;;4.60;3.20;;;;;;;2.22;74.60;98869.41;5036548;28;20459;-62
2022/11/23 06:56:04;;;;;;;7.85;3.88;;;;;;;2.22;74.37;98864.13;5030938;28;20025;-62
2022/11/23 06:58:30;;;;;;;5.03;3.65;;;;;;;2.25;74.85;98873.66;5031171;28;20122;-62
2022/11/23 07:01:05;;;;;;;6.75;3.53;;;;;;;2.14;74.80;98832.88;5032585;28;20029;-62
2022/11/23 07:03:30;;;;;;;6.97;3.53;;;;;;;2.35;74.51;98861.56;5048805;28;20033;-64
2022/11/23 07:05:56;;;;;;;5.50;3.15;;;;;;;2.57;73.54;98868.16;5045214;28;20391;-61
2022/11/23 07:08:21;;;;;;;4.95;3.25;;;;;;;2.44;72.75;98839.88;5042736;28;20072;-63
2022/11/23 07:10:47;;;;;;;5.72;3.85;;;;;;;2.35;73.89;98874.78;5039543;28;20056;-62
2022/11/23 07:13:13;;;;;;;7.00;3.55;;;;;;;2.23;75.23;98888.75;5042990;28;20021;-58
2022/11/23 07:15:39;;;;;;;5.55;3.55;;;;;;;2.43;74.22;98885.72;5051113;28;20312;-56
2022/11/23 07:18:05;;;;;;;6.70;4.45;;;;;;;2.39;73.57;98881.56;5049276;28;20037;-60
2022/11/23 07:20:31;;;;;;;7.60;4.28;;;;;;;2.55;73.45;98883.25;5034091;28;20181;-56
2022/11/23 07:23:00;;;;;;;6.72;4.85;;;;;;;2.34;74.22;98891.56;5034153;28;20112;-61
2022/11/23 07:25:27;;;;;;;8.02;4.85;;;;;;;2.42;74.17;98891.97;5050429;28;20021;-59
2022/11/23 07:27:57;;;;;;;4.38;3.08;;;;;;;2.70;72.56;98892.00;5039163;28;20324;-55
2022/11/23 07:30:24;;;;;;;4.40;3.20;;;;;;;2.63;72.37;98894.19;5032305;28;20029;-52
2022/11/23 07:32:49;;;;;;;5.30;3.88;;;;;;;2.34;73.05;98891.56;5031684;28;20338;-73
2022/11/23 07:35:15;;;;;;;6.15;4.20;;;;;;;2.39;73.58;98902.69;5039450;28;20044;-60
2022/11/23 07:37:40;;;;;;;6.57;4.40;;;;;;;2.36;73.93;98894.13;5040809;28;20107;-59
2022/11/23 07:40:06;;;;;;;7.35;5.15;;;;;;;2.23;74.96;98904.59;5031953;28;20030;-58
2022/11/23 07:42:32;;;;;;;6.18;4.30;;;;;;;2.41;73.96;98902.59;5044133;28;20452;-58
2022/11/23 07:44:57;;;;;;;5.97;4.28;;;;;;;2.44;74.10;98911.22;5035405;28;20056;-57
2022/11/23 07:47:23;;;;;;;6.72;4.88;;;;;;;2.41;73.33;98903.47;5038696;28;20033;-59
2022/11/23 07:49:48;;;;;;;6.10;4.40;;;;;;;2.27;73.81;98879.69;5048794;28;20041;-58
2022/11/23 07:52:14;;;;;;;7.68;4.60;;;;;;;2.47;73.87;98893.47;5042146;28;20112;-54
2022/11/23 07:54:39;;;;;;;5.50;3.80;;;;;;;2.75;72.66;98897.00;5044399;28;20040;-57
2022/11/23 07:57:04;;;;;;;5.60;3.88;;;;;;;2.65;72.59;98889.69;5046320;28;20033;-55
2022/11/23 07:59:30;;;;;;;6.65;4.10;;;;;;;2.67;72.71;98892.19;5041661;28;20025;-56
2022/11/23 08:01:55;;;;;;;8.73;4.60;;;;;;;2.42;74.19;98884.03;5044112;28;20068;-60
2022/11/23 08:04:21;;;;;;;6.72;4.28;;;;;;;2.44;74.68;98887.44;5050108;28;20029;-54
2022/11/23 08:06:47;;;;;;;7.25;3.80;;;;;;;2.62;74.21;98876.63;5044927;28;20055;-54
2022/11/23 08:09:12;;;;;;;5.35;4.03;;;;;;;2.61;74.18;98882.84;5051400;28;20500;-60
2022/11/23 08:11:38;;;;;;;6.63;4.88;;;;;;;2.58;74.22;98878.63;5034781;28;20036;-57
2022/11/23 08:14:03;;;;;;;4.60;3.70;;;;;;;2.67;74.61;98882.50;5051502;28;20462;-56
2022/11/23 08:16:29;;;;;;;6.40;3.92;;;;;;;2.72;72.41;98846.03;5051779;28;20068;-54
2022/11/23 08:18:55;;;;;;;4.72;3.42;;;;;;;2.86;72.02;98873.38;5043845;28;20029;-58
2022/11/23 08:21:21;;;;;;;6.88;3.80;;;;;;;2.73;73.57;98883.88;5054803;28;20029;-59
2022/11/23 08:23:47;;;;;;;4.50;3.10;;;;;;;2.80;72.49;98864.06;5054237;28;20025;-57
2022/11/23 08:26:12;;;;;;;5.22;3.45;;;;;;;2.92;72.22;98886.22;5054048;28;20024;-57
2022/11/23 08:28:38;;;;;;;7.60;3.38;;;;;;;3.04;71.45;98886.38;5052220;28;20114;-55
2022/11/23 08:31:08;;;;;;;6.35;3.40;;;;;;;2.78;72.95;98878.31;5045037;28;20029;-53
2022/11/23 08:33:33;;;;;;;4.60;3.17;;;;;;;2.95;71.81;98885.16;5041076;28;20029;-58
2022/11/23 08:36:06;;;;;;;5.68;3.70;;;;;;;2.86;72.54;98876.88;5035457;28;20037;-59
2022/11/23 08:38:33;;;;;;;5.55;3.65;;;;;;;2.90;72.46;98888.13;5046245;28;20463;-60
2022/11/23 08:41:02;;;;;;;5.50;3.42;;;;;;;2.97;72.78;98889.41;5053095;28;20044;-59
2022/11/23 08:43:28;;;;;;;5.55;3.20;;;;;;;3.06;72.21;98884.47;5054154;28;20021;-55
2022/11/23 08:45:55;;;;;;;4.63;2.80;;;;;;;3.34;70.31;98898.53;5053267;28;20438;-58
2022/11/23 08:48:21;;;;;;;3.53;3.00;;;;;;;3.19;71.33;98898.59;5054496;28;20045;-55
2022/11/23 08:50:46;;;;;;;3.85;2.92;;;;;;;3.11;71.23;98900.88;5041488;28;20037;-58
2022/11/23 08:53:12;;;;;;;5.22;2.90;;;;;;;3.24;70.79;98901.78;5034282;28;20045;-55
2022/11/23 08:55:37;;;;;;;5.07;3.03;;;;;;;3.23;70.83;98894.81;5034407;28;20029;-58
2022/11/23 08:58:03;;;;;;;4.20;2.85;;;;;;;3.30;71.02;98905.84;5033501;28;20345;-55
2022/11/23 09:00:29;;;;;;;3.92;2.70;;;;;;;3.50;69.95;98901.88;5033268;28;20084;-52
2022/11/23 09:02:57;;;;;;;6.20;2.85;;;;;;;3.53;68.58;98900.84;5034364;28;20032;-57
2022/11/23 09:05:23;;;;;;;4.03;2.72;;;;;;;3.53;68.96;98904.31;5033974;28;20444;-58
2022/11/23 09:07:49;;;;;;;4.82;2.30;;;;;;;3.44;69.25;98903.13;5034464;28;20033;-59
2022/11/23 09:10:15;;;;;;;2.67;1.60;;;;;;;3.54;68.28;98892.78;5034062;28;20432;-58
2022/11/23 09:12:40;;;;;;;5.68;2.55;;;;;;;3.30;69.20;98900.56;5033905;28;20033;-54
2022/11/23 09:15:06;;;;;;;3.70;2.72;;;;;;;3.29;69.51;98899.69;5040082;28;20033;-55
2022/11/23 09:17:31;;;;;;;3.80;2.38;;;;;;;3.28;69.57;98902.44;5053938;28;20064;-59
2022/11/23 09:19:57;;;;;;;1.52;1.05;;;;;;;3.52;69.24;98901.78;5049943;28;20437;-58
2022/11/23 09:22:22;;;;;;;2.85;2.30;;;;;;;3.19;68.67;98869.50;5036300;28;20368;-54
2022/11/23 09:24:48;;;;;;;4.50;2.60;;;;;;;3.31;69.60;98899.59;5034061;28;20041;-57
2022/11/23 09:27:13;;;;;;;3.65;2.60;;;;;;;3.26;69.83;98884.00;5033991;28;20091;-57
2022/11/23 09:29:39;;;;;;;4.80;2.90;;;;;;;3.38;70.73;98900.88;5033621;28;20033;-58
2022/11/23 09:32:04;;;;;;;3.58;2.88;;;;;;;3.49;69.54;98888.72;5032356;28;20346;-56
2022/11/23 09:34:29;;;;;;;6.43;2.58;;;;;;;3.62;69.58;98894.06;5033672;28;20044;-58
2022/11/23 09:36:56;;;;;;;3.78;2.78;;;;;;;3.67;69.61;98886.66;5032009;28;20342;-60
2022/11/23 09:39:21;;;;;;;7.07;3.22;;;;;;;3.69;70.16;98885.59;5033883;28;20065;-60
2022/11/23 09:41:47;;;;;;;3.50;2.35;;;;;;;3.96;68.90;98902.38;5042470;28;20048;-57
2022/11/23 09:44:35;;;;;;;4.40;2.67;;;;;;;4.14;67.46;98900.25;5045104;28;20134;-55
2022/11/23 09:47:30;;;;;;;3.25;2.70;;;;;;;3.56;67.99;98890.88;5052646;28;20090;-54
2022/11/23 09:50:04;;;;;;;7.47;2.78;;;;;;;3.70;68.05;98905.81;5049513;28;20102;-59
2022/11/23 09:52:31;;;;;;;4.43;3.28;;;;;;;3.38;69.14;98908.00;5032288;28;20132;-57
2022/11/23 09:55:19;;;;;;;5.20;2.78;;;;;;;3.19;70.18;98900.38;5042413;28;20149;-53
2022/11/23 09:57:47;;;;;;;4.90;3.20;;;;;;;3.29;69.53;98904.97;5038643;28;20052;-55
2022/11/23 10:00:21;;;;;;;4.93;2.88;;;;;;;3.21;70.87;98907.28;5039725;28;20476;-57
2022/11/23 10:02:47;;;;;;;5.82;2.78;;;;;;;3.37;69.77;98908.91;5033530;28;20073;-54
2022/11/23 10:05:35;;;;;;;4.50;3.15;;;;;;;3.53;69.37;98903.47;5032015;28;20069;-61
2022/11/23 10:08:44;;;;;;;4.03;3.22;;;;;;;3.34;69.42;98901.19;5039062;28;20037;-57
2022/11/23 10:11:37;;;;;;;4.38;3.20;;;;;;;3.27;70.60;98898.94;5037770;28;20033;-54
2022/11/23 10:14:36;;;;;;;3.75;2.67;;;;;;;3.47;68.80;98896.78;5034265;28;20046;-54
2022/11/23 10:17:24;;;;;;;5.10;3.55;;;;;;;3.32;69.01;98903.94;5043089;28;20384;-50
2022/11/23 10:20:15;;;;;;;5.05;3.40;;;;;;;3.25;69.65;98892.91;5035553;28;20022;-55
2022/11/23 10:22:46;;;;;;;5.20;3.50;;;;;;;2.90;70.55;98893.41;5041029;28;20116;-56
2022/11/23 10:25:18;;;;;;;5.10;3.53;;;;;;;2.91;70.35;98899.53;5052566;28;20037;-52
2022/11/23 10:27:46;;;;;;;5.68;3.92;;;;;;;2.99;70.12;98903.38;5034831;28;20076;-64
2022/11/23 10:30:13;;;;;;;6.60;4.03;;;;;;;2.82;71.02;98895.66;5031984;28;20036;-56
2022/11/23 10:33:12;;;;;;;5.72;3.75;;;;;;;2.93;72.40;98914.34;5045725;28;20457;-54
2022/11/23 10:35:38;;;;;;;8.52;4.28;;;;;;;2.87;71.99;98888.28;5033605;28;20126;-52
2022/11/23 10:38:12;;;;;;;8.15;4.80;;;;;;;3.12;71.95;98907.88;5052238;28;20087;-52
2022/11/23 10:41:01;;;;;;;9.73;4.47;;;;;;;3.21;72.40;98914.34;5052702;28;20466;-54
2022/11/23 10:43:52;;;;;;;8.55;4.65;;;;;;;3.32;71.60;98903.06;5050422;28;20037;-54
2022/11/23 10:46:41;;;;;;;7.10;4.88;;;;;;;3.36;71.18;98909.84;5040381;28;20052;-56
2022/11/23 10:49:19;;;;;;;5.75;3.75;;;;;;;3.31;71.15;98910.19;5031879;28;20117;-53
2022/11/23 10:51:58;;;;;;;5.20;3.80;;;;;;;3.28;71.41;98913.88;5035925;28;20086;-55
2022/11/23 10:54:51;;;;;;;6.55;4.03;;;;;;;3.29;71.82;98914.72;5052035;28;20049;-54
2022/11/23 10:57:27;;;;;;;6.88;4.68;;;;;;;3.23;71.33;98910.69;5044362;28;20045;-53
2022/11/23 11:00:17;;;;;;;7.53;4.50;;;;;;;3.42;71.97;98907.66;5044013;28;20049;-53
2022/11/23 11:02:44;;;;;;;5.68;4.07;;;;;;;3.42;69.87;98909.47;5048966;28;20068;-53
2022/11/23 11:05:36;;;;;;;8.32;4.40;;;;;;;3.32;71.20;98917.16;5051889;28;20043;-56
2022/11/23 11:08:17;;;;;;;9.07;4.90;;;;;;;3.20;70.83;98918.81;5053309;28;20106;-56
2022/11/23 11:10:55;;;;;;;7.90;5.10;;;;;;;3.14;71.35;98916.56;5054401;28;20116;-54
2022/11/23 11:13:30;;;;;;;9.43;5.43;;;;;;;3.13;71.52;98922.78;5051389;28;20120;-55
2022/11/23 11:16:00;;;;;;;7.38;5.05;;;;;;;3.06;71.48;98922.34;5037896;28;20444;-52
2022/11/23 11:18:35;;;;;;;7.93;5.55;;;;;;;3.07;71.66;98928.47;5032030;28;20045;-54
2022/11/23 11:21:23;;;;;;;10.43;4.55;;;;;;;3.14;71.94;98920.06;5031684;28;20033;-56
2022/11/23 11:23:58;;;;;;;7.60;4.05;;;;;;;3.22;71.27;98932.78;5031399;28;20025;-56
2022/11/23 11:26:25;;;;;;;;;;;;;;;3.42;71.07;98938.59;5042345;28;20120;-53
2022/11/23 11:28:53;;;;;;;8.32;3.88;;;;;;;3.15;71.61;98934.13;5050931;28;19908;-54
2022/11/23 11:31:54;;;;;;;5.75;3.85;;;;;;;3.11;71.78;98943.19;5049749;28;20072;-56
2022/11/23 11:34:29;;;;;;;8.05;4.55;;;;;;;3.04;71.79;98941.91;5050088;28;20079;-56
2022/11/23 11:37:06;;;;;;;8.43;4.53;;;;;;;3.11;72.60;98948.47;5034417;28;20456;-62
2022/11/23 11:39:40;;;;;;;7.97;4.93;;;;;;;3.08;72.30;98949.53;5033970;28;20059;-54
2022/11/23 11:42:12;;;;;;;5.88;4.40;;;;;;;3.10;72.45;98954.72;5050698;28;20044;-55
2022/11/23 11:44:41;;;;;;;7.40;4.50;;;;;;;3.08;72.46;98961.91;5051599;28;20390;-55
2022/11/23 11:47:33;;;;;;;8.57;4.47;;;;;;;3.22;71.99;98955.72;5051487;28;20420;-56
2022/11/23 11:50:01;;;;;;;7.10;4.78;;;;;;;3.10;72.27;98960.00;5047422;28;20099;-57